createdAt,value
2022-07-30T00:01:17.546Z,48.40
2022-07-30T00:03:44.488Z,48.45
2022-07-30T00:06:11.264Z,48.11
2022-07-30T00:08:38.048Z,48.27
2022-07-30T00:11:04.830Z,48.41
2022-07-30T00:13:31.628Z,48.35
2022-07-30T00:15:58.428Z,48.69
2022-07-30T00:18:25.268Z,48.59
2022-07-30T00:20:52.050Z,48.48
2022-07-30T00:23:18.853Z,49.06
2022-07-30T00:25:45.622Z,49.25
2022-07-30T00:28:12.481Z,49.47
2022-07-30T00:30:40.856Z,49.62
2022-07-30T00:33:08.272Z,49.32
2022-07-30T00:35:35.316Z,49.27
2022-07-30T00:38:02.224Z,49.16
2022-07-30T00:40:29.280Z,49.38
2022-07-30T00:42:56.086Z,49.46
2022-07-30T00:45:23.255Z,49.52
2022-07-30T00:47:50.108Z,49.72
2022-07-30T00:50:17.027Z,50.17
2022-07-30T00:52:44.407Z,50.17
2022-07-30T00:55:12.498Z,50.13
2022-07-30T00:57:41.058Z,49.80
2022-07-30T01:00:09.633Z,50.14
2022-07-30T01:02:36.490Z,50.88
2022-07-30T01:05:03.965Z,51.66
2022-07-30T01:07:30.856Z,51.89
2022-07-30T01:09:57.734Z,52.38
2022-07-30T01:12:25.970Z,52.41
2022-07-30T01:14:53.160Z,52.33
2022-07-30T01:17:20.456Z,52.90
2022-07-30T01:19:56.055Z,53.09
2022-07-30T01:22:35.423Z,53.20
2022-07-30T01:25:20.699Z,53.81
2022-07-30T01:27:49.109Z,53.76
2022-07-30T01:30:17.982Z,53.85
2022-07-30T01:32:46.107Z,53.70
2022-07-30T01:35:14.706Z,53.62
2022-07-30T01:37:42.637Z,53.27
2022-07-30T01:40:10.692Z,53.35
2022-07-30T01:42:38.686Z,53.18
2022-07-30T01:45:06.296Z,53.37
2022-07-30T01:47:34.462Z,53.36
2022-07-30T01:50:02.896Z,52.90
2022-07-30T01:52:31.573Z,53.05
2022-07-30T01:54:59.825Z,53.34
2022-07-30T01:57:26.833Z,54.38
2022-07-30T01:59:57.865Z,54.15
2022-07-30T02:02:25.383Z,54.25
2022-07-30T02:04:52.323Z,54.46
2022-07-30T02:07:24.049Z,54.24
2022-07-30T02:09:58.193Z,54.37
2022-07-30T02:12:29.481Z,54.59
2022-07-30T02:15:35.090Z,54.96
2022-07-30T02:18:04.123Z,55.63
2022-07-30T02:20:33.479Z,56.08
2022-07-30T02:23:05.807Z,56.18
2022-07-30T02:25:33.745Z,56.07
2022-07-30T02:28:02.713Z,56.02
2022-07-30T02:30:31.955Z,55.80
2022-07-30T02:33:03.322Z,55.57
2022-07-30T02:35:31.693Z,55.13
2022-07-30T02:38:01.007Z,54.81
2022-07-30T02:40:29.863Z,54.62
2022-07-30T02:42:57.463Z,54.74
2022-07-30T02:45:27.200Z,55.09
2022-07-30T02:48:01.422Z,55.39
2022-07-30T02:50:28.536Z,55.81
2022-07-30T02:52:56.429Z,56.28
2022-07-30T02:55:24.499Z,56.43
2022-07-30T02:57:52.679Z,56.11
2022-07-30T03:00:21.256Z,56.10
2022-07-30T03:02:48.131Z,55.97
2022-07-30T03:05:16.155Z,55.95
2022-07-30T03:07:44.487Z,56.02
2022-07-30T03:10:12.502Z,56.23
2022-07-30T03:12:41.777Z,56.52
2022-07-30T03:15:09.101Z,56.64
2022-07-30T03:17:38.887Z,56.53
2022-07-30T03:20:08.752Z,56.26
2022-07-30T03:22:39.533Z,55.90
2022-07-30T03:25:07.092Z,55.64
2022-07-30T03:27:36.116Z,55.40
2022-07-30T03:30:03.195Z,55.30
2022-07-30T03:32:30.189Z,55.38
2022-07-30T03:34:58.539Z,55.66
2022-07-30T03:37:34.841Z,55.52
2022-07-30T03:40:02.297Z,55.85
2022-07-30T03:42:31.646Z,55.65
2022-07-30T03:44:58.461Z,55.54
2022-07-30T03:47:25.879Z,55.79
2022-07-30T03:49:52.839Z,56.39
2022-07-30T03:52:20.106Z,56.76
2022-07-30T03:54:47.587Z,56.57
2022-07-30T03:57:46.172Z,56.50
2022-07-30T04:00:14.555Z,56.73
2022-07-30T04:02:47.826Z,57.02
2022-07-30T04:05:23.259Z,56.60
2022-07-30T04:07:52.347Z,56.69
2022-07-30T04:10:20.889Z,56.76
2022-07-30T04:13:20.084Z,56.74
2022-07-30T04:16:38.490Z,56.54
2022-07-30T04:18:48.997Z,56.50
2022-07-30T04:21:17.995Z,56.51
2022-07-30T04:24:04.714Z,56.35
2022-07-30T04:26:34.060Z,56.83
2022-07-30T04:29:01.717Z,57.35
2022-07-30T04:31:29.080Z,57.62
2022-07-30T04:34:04.807Z,58.11
2022-07-30T04:36:39.283Z,58.44
2022-07-30T04:39:06.128Z,59.09
2022-07-30T04:41:35.441Z,59.29
2022-07-30T04:44:31.515Z,59.64
2022-07-30T04:47:17.770Z,59.60
2022-07-30T04:49:57.457Z,59.39
2022-07-30T04:52:24.939Z,59.45
2022-07-30T04:54:54.469Z,59.59
2022-07-30T04:57:21.846Z,59.80
2022-07-30T04:59:49.089Z,59.34
2022-07-30T05:02:16.555Z,59.05
2022-07-30T05:04:44.870Z,58.22
2022-07-30T05:07:14.041Z,57.90
2022-07-30T05:09:42.946Z,57.66
2022-07-30T05:12:10.790Z,57.63
2022-07-30T05:14:37.857Z,57.73
2022-07-30T05:17:05.127Z,58.38
2022-07-30T05:19:32.248Z,58.06
2022-07-30T05:22:02.369Z,57.41
2022-07-30T05:24:31.819Z,57.44
2022-07-30T05:26:59.367Z,57.07
2022-07-30T05:29:27.962Z,56.19
2022-07-30T05:32:07.342Z,55.90
2022-07-30T05:34:35.799Z,55.16
2022-07-30T05:37:02.994Z,54.66
2022-07-30T05:39:30.505Z,54.21
2022-07-30T05:42:22.362Z,53.88
2022-07-30T05:44:52.054Z,53.06
2022-07-30T05:47:21.196Z,52.66
2022-07-30T05:49:49.959Z,52.56
2022-07-30T05:52:16.874Z,52.11
2022-07-30T05:54:43.928Z,52.95
2022-07-30T05:57:29.509Z,52.88
2022-07-30T05:59:57.449Z,52.72
2022-07-30T06:02:43.255Z,52.50
2022-07-30T06:05:45.572Z,52.82
2022-07-30T06:08:12.472Z,52.93
2022-07-30T06:10:39.861Z,52.44
2022-07-30T06:13:06.807Z,52.95
2022-07-30T06:15:33.760Z,51.63
2022-07-30T06:18:02.321Z,51.39
2022-07-30T06:21:01.463Z,51.53
2022-07-30T06:23:34.172Z,51.54
2022-07-30T06:26:21.179Z,51.71
2022-07-30T06:28:48.258Z,51.60
2022-07-30T06:31:24.716Z,50.26
2022-07-30T06:33:52.186Z,49.84
2022-07-30T06:36:19.671Z,49.80
2022-07-30T06:38:58.429Z,49.14
2022-07-30T06:41:39.188Z,48.98
2022-07-30T06:44:06.121Z,48.43
2022-07-30T06:47:07.519Z,47.95
2022-07-30T06:49:35.976Z,47.41
2022-07-30T06:52:04.060Z,46.78
2022-07-30T06:54:30.970Z,46.57
2022-07-30T06:57:06.440Z,45.94
2022-07-30T06:59:33.643Z,45.27
2022-07-30T07:02:46.794Z,45.85
2022-07-30T07:05:14.458Z,44.79
2022-07-30T07:07:56.492Z,44.79
2022-07-30T07:10:28.067Z,44.33
2022-07-30T07:13:16.320Z,43.62
2022-07-30T07:15:43.561Z,43.12
2022-07-30T07:18:15.491Z,43.29
2022-07-30T07:20:49.793Z,43.08
2022-07-30T07:23:16.833Z,42.69
2022-07-30T07:25:47.923Z,42.13
2022-07-30T07:28:14.859Z,41.74
2022-07-30T07:30:44.534Z,41.51
2022-07-30T07:33:13.203Z,41.37
2022-07-30T07:35:48.935Z,41.76
2022-07-30T07:38:21.681Z,41.56
2022-07-30T07:40:49.891Z,41.58
2022-07-30T07:43:16.949Z,41.27
2022-07-30T07:45:43.937Z,41.14
2022-07-30T07:48:11.263Z,41.42
2022-07-30T07:50:59.935Z,40.59
2022-07-30T07:53:29.503Z,39.77
2022-07-30T07:55:57.215Z,40.06
2022-07-30T07:58:26.110Z,39.18
2022-07-30T08:00:57.033Z,39.66
2022-07-30T08:03:38.046Z,39.33
2022-07-30T08:06:23.281Z,39.62
2022-07-30T08:09:10.046Z,38.85
2022-07-30T08:11:57.002Z,38.58
2022-07-30T08:14:53.286Z,38.64
2022-07-30T08:17:46.855Z,38.20
2022-07-30T08:20:19.757Z,38.55
2022-07-30T08:22:47.244Z,38.50
2022-07-30T08:25:22.623Z,38.32
2022-07-30T08:27:53.190Z,37.74
2022-07-30T08:30:20.321Z,37.66
2022-07-30T08:32:47.325Z,37.71
2022-07-30T08:35:14.317Z,37.56
2022-07-30T08:37:42.353Z,37.36
2022-07-30T08:40:10.075Z,37.40
2022-07-30T08:42:47.029Z,36.17
2022-07-30T08:45:15.067Z,35.87
2022-07-30T08:47:44.855Z,36.48
2022-07-30T08:50:21.148Z,35.29
2022-07-30T08:53:10.407Z,35.61
2022-07-30T08:55:38.245Z,35.26
2022-07-30T08:58:20.118Z,35.03
2022-07-30T09:00:47.000Z,34.56
2022-07-30T09:03:13.927Z,34.02
2022-07-30T09:05:40.874Z,34.03
2022-07-30T09:08:09.045Z,33.56
2022-07-30T09:10:36.004Z,32.82
2022-07-30T09:13:03.031Z,31.90
2022-07-30T09:15:29.922Z,31.77
2022-07-30T09:18:01.507Z,31.97
2022-07-30T09:20:34.238Z,32.26
2022-07-30T09:23:06.165Z,31.50
2022-07-30T09:25:52.244Z,31.21
2022-07-30T09:28:37.564Z,30.98
2022-07-30T09:31:23.644Z,30.79
2022-07-30T09:34:29.087Z,30.64
2022-07-30T09:37:25.105Z,30.43
2022-07-30T09:40:17.281Z,29.92
2022-07-30T09:43:07.114Z,29.39
2022-07-30T09:45:35.746Z,29.69
2022-07-30T09:48:03.152Z,30.18
2022-07-30T09:50:31.018Z,29.78
2022-07-30T09:53:16.803Z,29.02
2022-07-30T09:55:43.674Z,28.51
2022-07-30T09:58:12.985Z,28.68
2022-07-30T10:00:57.038Z,28.38
2022-07-30T10:03:47.890Z,27.76
2022-07-30T10:06:38.152Z,27.60
2022-07-30T10:09:30.669Z,27.44
2022-07-30T10:11:59.834Z,26.71
2022-07-30T10:14:32.265Z,26.88
2022-07-30T10:17:01.148Z,27.00
2022-07-30T10:19:40.202Z,25.88
2022-07-30T10:22:27.405Z,25.76
2022-07-30T10:25:16.357Z,25.41
2022-07-30T10:28:03.220Z,25.46
2022-07-30T10:30:32.475Z,25.09
2022-07-30T10:32:59.939Z,24.15
2022-07-30T10:35:34.417Z,24.99
2022-07-30T10:38:07.702Z,24.62
2022-07-30T10:40:39.437Z,24.36
2022-07-30T10:43:31.501Z,24.44
2022-07-30T10:46:19.967Z,23.65
2022-07-30T10:48:50.620Z,23.71
2022-07-30T10:51:18.527Z,23.41
2022-07-30T10:54:01.549Z,22.79
2022-07-30T10:56:28.482Z,23.55
2022-07-30T10:59:09.295Z,23.52
2022-07-30T11:02:08.174Z,22.56
2022-07-30T11:04:36.379Z,22.18
2022-07-30T11:07:21.637Z,21.84
2022-07-30T11:10:05.825Z,21.23
2022-07-30T11:13:02.074Z,21.17
2022-07-30T11:15:47.116Z,21.09
2022-07-30T11:18:15.325Z,20.80
2022-07-30T11:20:48.247Z,20.48
2022-07-30T11:23:46.336Z,21.23
2022-07-30T11:26:34.938Z,20.45
2022-07-30T11:29:01.825Z,20.50
2022-07-30T11:31:54.860Z,19.94
2022-07-30T11:34:30.814Z,19.64
2022-07-30T11:37:18.764Z,19.18
2022-07-30T11:40:15.952Z,19.39
2022-07-30T11:43:13.106Z,19.08
2022-07-30T11:45:40.270Z,19.02
2022-07-30T11:48:10.772Z,18.79
2022-07-30T11:50:37.918Z,18.67
2022-07-30T11:53:16.725Z,18.72
2022-07-30T11:55:45.991Z,18.89
2022-07-30T11:58:32.558Z,18.70
2022-07-30T12:01:09.305Z,19.27
2022-07-30T12:03:40.000Z,18.57
2022-07-30T12:06:09.478Z,18.49
2022-07-30T12:09:02.608Z,18.17
2022-07-30T12:11:33.305Z,18.02
2022-07-30T12:14:02.431Z,17.78
2022-07-30T12:16:30.988Z,17.69
2022-07-30T12:19:06.950Z,18.04
2022-07-30T12:21:36.647Z,17.61
2022-07-30T12:24:07.620Z,17.34
2022-07-30T12:26:34.971Z,17.22
2022-07-30T12:29:03.742Z,16.88
2022-07-30T12:31:30.619Z,17.18
2022-07-30T12:33:58.355Z,17.17
2022-07-30T12:36:31.114Z,17.01
2022-07-30T12:38:58.554Z,17.10
2022-07-30T12:41:42.839Z,17.11
2022-07-30T12:44:10.140Z,17.00
2022-07-30T12:46:43.445Z,16.56
2022-07-30T12:49:22.244Z,16.99
2022-07-30T12:51:51.451Z,16.95
2022-07-30T12:54:19.619Z,17.89
2022-07-30T12:56:56.987Z,18.16
2022-07-30T12:59:24.005Z,18.15
2022-07-30T13:01:52.479Z,17.91
2022-07-30T13:04:19.337Z,18.77
2022-07-30T13:07:06.360Z,18.89
2022-07-30T13:09:33.131Z,19.25
2022-07-30T13:12:00.210Z,20.87
2022-07-30T13:14:27.412Z,20.72
2022-07-30T13:16:56.428Z,21.27
2022-07-30T13:19:24.436Z,21.32
2022-07-30T13:21:51.455Z,22.43
2022-07-30T13:24:18.745Z,23.06
2022-07-30T13:26:45.750Z,22.75
2022-07-30T13:29:13.790Z,22.74
2022-07-30T13:31:42.428Z,23.23
2022-07-30T13:34:10.469Z,23.16
2022-07-30T13:36:37.228Z,23.01
2022-07-30T13:39:04.213Z,22.82
2022-07-30T13:41:31.051Z,23.01
2022-07-30T13:43:57.969Z,23.37
2022-07-30T13:46:24.837Z,23.79
2022-07-30T13:48:51.697Z,23.87
2022-07-30T13:51:18.854Z,24.34
2022-07-30T13:53:45.656Z,24.96
2022-07-30T13:56:13.127Z,25.37
2022-07-30T13:58:40.385Z,25.46
2022-07-30T14:01:07.560Z,25.27
2022-07-30T14:03:35.401Z,26.02
2022-07-30T14:06:10.959Z,25.65
2022-07-30T14:08:38.493Z,25.73
2022-07-30T14:11:05.287Z,25.77
2022-07-30T14:13:32.129Z,25.78
2022-07-30T14:15:59.007Z,26.66
2022-07-30T14:18:25.781Z,26.55
2022-07-30T14:20:53.828Z,30.64
2022-07-30T14:23:20.928Z,31.52
2022-07-30T14:25:47.757Z,31.03
2022-07-30T14:28:14.937Z,29.82
2022-07-30T14:30:41.871Z,29.45
2022-07-30T14:33:08.720Z,30.58
2022-07-30T14:35:35.633Z,28.82
2022-07-30T14:38:03.652Z,29.13
2022-07-30T14:40:30.496Z,30.32
2022-07-30T14:42:57.946Z,31.14
2022-07-30T14:45:25.463Z,31.28
2022-07-30T14:47:52.731Z,31.81
2022-07-30T14:50:19.767Z,34.31
2022-07-30T14:52:47.622Z,35.52
2022-07-30T14:55:14.448Z,35.08
2022-07-30T14:57:41.249Z,36.87
2022-07-30T15:00:10.942Z,36.75
2022-07-30T15:02:37.883Z,37.29
2022-07-30T15:05:04.949Z,34.93
2022-07-30T15:07:34.552Z,33.60
2022-07-30T15:10:02.057Z,31.88
2022-07-30T15:12:28.987Z,31.14
2022-07-30T15:14:55.994Z,30.01
2022-07-30T15:17:22.786Z,29.70
2022-07-30T15:19:50.769Z,28.52
2022-07-30T15:22:18.856Z,28.68
2022-07-30T15:24:45.688Z,28.48
2022-07-30T15:27:12.531Z,28.92
2022-07-30T15:29:39.385Z,28.93
2022-07-30T15:32:06.773Z,28.39
2022-07-30T15:34:37.197Z,27.43
2022-07-30T15:37:05.312Z,27.19
2022-07-30T15:39:33.245Z,27.34
2022-07-30T15:42:01.363Z,26.57
2022-07-30T15:44:28.678Z,27.69
2022-07-30T15:46:55.555Z,28.86
2022-07-30T15:49:22.518Z,28.65
2022-07-30T15:51:49.430Z,27.69
2022-07-30T15:54:22.889Z,27.23
2022-07-30T15:56:50.716Z,27.04
2022-07-30T15:59:17.904Z,27.70
2022-07-30T16:01:44.740Z,28.67
2022-07-30T16:04:19.915Z,29.76
2022-07-30T16:06:47.629Z,30.94
2022-07-30T16:09:14.737Z,32.15
2022-07-30T16:11:43.099Z,33.01
2022-07-30T16:14:10.484Z,34.12
2022-07-30T16:16:37.362Z,34.69
2022-07-30T16:19:04.562Z,35.05
2022-07-30T16:21:31.343Z,35.72
2022-07-30T16:23:58.233Z,36.23
2022-07-30T16:26:25.030Z,36.01
2022-07-30T16:28:51.918Z,35.29
2022-07-30T16:31:18.765Z,33.35
2022-07-30T16:33:45.941Z,33.95
2022-07-30T16:36:14.351Z,34.80
2022-07-30T16:38:41.482Z,35.82
2022-07-30T16:41:13.240Z,36.11
2022-07-30T16:43:40.740Z,37.05
2022-07-30T16:46:07.717Z,37.78
2022-07-30T16:48:34.832Z,38.39
2022-07-30T16:51:01.681Z,38.57
2022-07-30T16:53:28.816Z,39.01
2022-07-30T16:55:57.076Z,38.70
2022-07-30T16:58:28.449Z,39.36
2022-07-30T17:00:58.535Z,39.40
2022-07-30T17:03:25.624Z,39.32
2022-07-30T17:05:52.968Z,39.79
2022-07-30T17:08:24.868Z,41.03
2022-07-30T17:10:52.280Z,41.47
2022-07-30T17:13:19.284Z,42.28
2022-07-30T17:15:46.934Z,42.96
2022-07-30T17:18:14.069Z,43.66
2022-07-30T17:20:40.946Z,44.29
2022-07-30T17:23:08.090Z,45.55
2022-07-30T17:25:35.274Z,47.83
2022-07-30T17:28:02.275Z,49.22
2022-07-30T17:30:29.880Z,50.18
2022-07-30T17:32:56.754Z,50.30
2022-07-30T17:35:24.899Z,50.11
2022-07-30T17:37:51.850Z,49.85
2022-07-30T17:40:29.314Z,50.29
2022-07-30T17:43:04.031Z,50.13
2022-07-30T17:45:31.842Z,49.32
2022-07-30T17:47:58.682Z,48.91
2022-07-30T17:50:25.523Z,48.31
2022-07-30T17:52:52.454Z,47.44
2022-07-30T17:55:19.271Z,47.16
2022-07-30T17:57:46.131Z,46.43
2022-07-30T18:00:13.338Z,46.59
2022-07-30T18:02:40.183Z,46.19
2022-07-30T18:05:07.436Z,46.88
2022-07-30T18:07:34.289Z,47.29
2022-07-30T18:10:01.161Z,48.67
2022-07-30T18:12:27.980Z,49.60
2022-07-30T18:14:55.258Z,50.38
2022-07-30T18:17:21.987Z,53.58
2022-07-30T18:19:48.806Z,59.53
2022-07-30T18:22:16.071Z,64.06
2022-07-30T18:24:55.118Z,68.13
2022-07-30T18:27:22.011Z,70.98
2022-07-30T18:29:48.843Z,72.47
2022-07-30T18:32:15.770Z,74.96
2022-07-30T18:34:42.679Z,77.74
2022-07-30T18:37:09.442Z,80.22
2022-07-30T18:39:36.248Z,82.55
2022-07-30T18:42:03.827Z,84.43
2022-07-30T18:44:31.367Z,86.04
2022-07-30T18:46:58.214Z,86.52
2022-07-30T18:49:40.402Z,87.69
2022-07-30T18:52:07.764Z,88.63
2022-07-30T18:54:36.150Z,89.61
2022-07-30T18:57:03.123Z,90.14
2022-07-30T18:59:30.003Z,90.49
2022-07-30T19:01:56.826Z,91.23
2022-07-30T19:04:23.634Z,92.22
2022-07-30T19:06:50.453Z,91.99
2022-07-30T19:09:18.221Z,92.71
2022-07-30T19:11:45.914Z,93.24
2022-07-30T19:14:14.257Z,93.24
2022-07-30T19:16:42.504Z,93.86
2022-07-30T19:19:09.548Z,94.38
2022-07-30T19:21:36.547Z,94.16
2022-07-30T19:24:03.928Z,94.39
2022-07-30T19:26:30.850Z,93.98
2022-07-30T19:28:57.671Z,94.26
2022-07-30T19:31:24.532Z,93.83
2022-07-30T19:33:51.415Z,93.74
2022-07-30T19:36:20.889Z,94.24
2022-07-30T19:38:49.027Z,93.96
2022-07-30T19:41:16.555Z,94.16
2022-07-30T19:43:43.417Z,94.48
2022-07-30T19:46:25.281Z,95.02
2022-07-30T19:48:52.275Z,95.45
2022-07-30T19:51:20.919Z,95.68
2022-07-30T19:53:52.205Z,96.03
2022-07-30T19:56:19.502Z,96.09
2022-07-30T19:58:46.514Z,96.09
2022-07-30T20:01:15.836Z,95.84
2022-07-30T20:03:45.963Z,95.89
2022-07-30T20:06:15.130Z,95.58
2022-07-30T20:08:44.964Z,95.45
2022-07-30T20:11:14.078Z,95.67
2022-07-30T20:13:48.226Z,95.83
2022-07-30T20:16:15.349Z,96.16
2022-07-30T20:18:43.027Z,96.07
2022-07-30T20:21:15.142Z,95.88
2022-07-30T20:23:42.858Z,96.08
2022-07-30T20:26:13.055Z,96.29
2022-07-30T20:28:41.296Z,96.14
2022-07-30T20:31:08.745Z,95.74
2022-07-30T20:33:38.090Z,94.48
2022-07-30T20:36:06.367Z,94.66
2022-07-30T20:38:38.735Z,94.37
2022-07-30T20:41:09.920Z,93.92
2022-07-30T20:43:52.115Z,93.43
2022-07-30T20:46:19.975Z,92.91
2022-07-30T20:48:46.891Z,92.67
2022-07-30T20:51:14.010Z,92.41
2022-07-30T20:53:41.979Z,91.78
2022-07-30T20:56:13.341Z,91.51
2022-07-30T20:58:40.940Z,90.83
2022-07-30T21:01:07.973Z,90.67
2022-07-30T21:03:43.628Z,90.18
2022-07-30T21:06:15.075Z,90.03
2022-07-30T21:08:41.917Z,89.51
2022-07-30T21:11:09.741Z,88.90
2022-07-30T21:13:36.880Z,87.43
2022-07-30T21:16:04.459Z,87.75
2022-07-30T21:18:43.058Z,88.45
2022-07-30T21:21:17.693Z,89.71
2022-07-30T21:23:56.088Z,90.99
2022-07-30T21:26:23.423Z,91.62
2022-07-30T21:28:50.338Z,92.25
2022-07-30T21:31:18.953Z,93.10
2022-07-30T21:34:05.734Z,92.87
2022-07-30T21:36:32.672Z,93.64
2022-07-30T21:39:00.524Z,93.92
2022-07-30T21:41:40.311Z,94.20
2022-07-30T21:44:07.738Z,93.55
2022-07-30T21:46:34.556Z,93.51
2022-07-30T21:49:01.408Z,94.06
2022-07-30T21:51:28.227Z,93.79
2022-07-30T21:53:57.906Z,93.49
2022-07-30T21:56:24.777Z,92.89
2022-07-30T21:58:51.959Z,92.67
2022-07-30T22:01:22.591Z,92.97
2022-07-30T22:04:02.823Z,93.45
2022-07-30T22:09:33.838Z,93.02
2022-07-30T22:12:06.291Z,93.13
2022-07-30T22:14:33.982Z,92.88
2022-07-30T22:17:01.671Z,92.88
2022-07-30T22:19:31.264Z,92.74
2022-07-30T22:22:03.585Z,92.10
2022-07-30T22:24:45.678Z,91.17
2022-07-30T22:27:14.796Z,91.39
2022-07-30T22:29:43.261Z,91.63
2022-07-30T22:32:10.857Z,91.88
2022-07-30T22:34:37.774Z,92.17
2022-07-30T22:37:04.692Z,92.43
2022-07-30T22:39:51.242Z,92.61
2022-07-30T22:42:24.126Z,93.19
2022-07-30T22:45:09.732Z,93.40
2022-07-30T22:47:50.705Z,93.88
2022-07-30T22:50:25.908Z,93.69
2022-07-30T22:53:00.452Z,93.27
2022-07-30T22:55:40.312Z,93.87
2022-07-30T22:58:08.016Z,93.72
2022-07-30T23:00:36.985Z,93.78
2022-07-30T23:03:05.416Z,93.71
2022-07-30T23:05:35.224Z,93.55
2022-07-30T23:08:02.473Z,93.70
2022-07-30T23:10:29.398Z,93.49
2022-07-30T23:12:32.094Z,93.42
2022-07-30T23:12:56.344Z,93.55
2022-07-30T23:15:23.270Z,93.23
2022-07-30T23:17:50.080Z,93.46
2022-07-30T23:20:17.986Z,93.58
2022-07-30T23:22:44.806Z,93.48
2022-07-30T23:25:12.020Z,93.20
2022-07-30T23:27:39.479Z,93.03
2022-07-30T23:30:09.694Z,92.92
2022-07-30T23:32:36.853Z,92.79
2022-07-30T23:35:04.016Z,92.83
2022-07-30T23:37:38.036Z,92.91
2022-07-30T23:40:15.700Z,92.80
2022-07-30T23:42:42.523Z,92.56
2022-07-30T23:45:09.658Z,92.59
2022-07-30T23:48:01.470Z,92.32
2022-07-30T23:50:25.306Z,91.99
2022-07-30T23:52:52.140Z,92.20
2022-07-30T23:55:19.004Z,92.24
2022-07-30T23:57:45.784Z,92.76
